createdAt,value
2019-06-11T00:00:45.542Z,75.90
2019-06-11T00:01:45.552Z,118.30
2019-06-11T00:02:45.633Z,71.40
2019-06-11T00:03:45.650Z,53.70
2019-06-11T00:04:45.697Z,63.10
2019-06-11T00:05:45.766Z,56.00
2019-06-11T00:06:45.782Z,75.80
2019-06-11T00:07:45.807Z,55.50
2019-06-11T00:08:45.847Z,41.90
2019-06-11T00:09:45.886Z,42.10
2019-06-11T00:10:45.931Z,45.60
2019-06-11T00:11:46.028Z,44.60
2019-06-11T00:12:46.017Z,52.40
2019-06-11T00:13:46.104Z,55.80
2019-06-11T00:14:46.122Z,46.30
2019-06-11T00:15:46.182Z,58.90
2019-06-11T00:16:46.204Z,50.80
2019-06-11T00:17:46.254Z,42.80
2019-06-11T00:18:46.265Z,42.80
2019-06-11T00:19:46.326Z,41.80
2019-06-11T00:20:46.368Z,47.30
2019-06-11T00:21:46.430Z,47.30
2019-06-11T00:22:46.449Z,47.40
2019-06-11T00:23:46.486Z,45.20
2019-06-11T00:24:46.533Z,42.10
2019-06-11T00:25:46.634Z,43.50
2019-06-11T00:26:46.631Z,41.50
2019-06-11T00:27:46.655Z,42.30
2019-06-11T00:28:46.721Z,43.00
2019-06-11T00:29:46.765Z,43.00
2019-06-11T00:30:46.807Z,47.10
2019-06-11T00:31:46.847Z,47.20
2019-06-11T00:32:46.943Z,49.80
2019-06-11T00:33:46.970Z,147.70
2019-06-11T00:34:46.970Z,111.80
2019-06-11T00:35:47.012Z,222.80
2019-06-11T00:36:47.036Z,191.50
2019-06-11T00:37:47.084Z,136.10
2019-06-11T00:38:47.130Z,103.30
2019-06-11T00:39:47.151Z,93.20
2019-06-11T00:40:47.255Z,71.50
2019-06-11T00:41:47.236Z,107.60
2019-06-11T00:42:47.290Z,85.30
2019-06-11T00:43:47.351Z,56.40
2019-06-11T00:44:47.388Z,56.80
2019-06-11T00:45:47.464Z,76.70
2019-06-11T00:46:47.479Z,87.80
2019-06-11T00:47:47.501Z,55.80
2019-06-11T00:48:47.552Z,54.60
2019-06-11T00:49:47.584Z,58.20
2019-06-11T00:50:47.633Z,63.80
2019-06-11T00:51:47.726Z,61.80
2019-06-11T00:52:47.713Z,61.00
2019-06-11T00:53:47.747Z,70.20
2019-06-11T00:54:47.802Z,117.50
2019-06-11T00:55:47.840Z,148.00
2019-06-11T00:56:47.907Z,219.90
2019-06-11T00:57:47.938Z,174.90
2019-06-11T00:58:47.968Z,169.00
2019-06-11T00:59:48.004Z,185.10
2019-06-11T01:00:48.069Z,190.90
2019-06-11T01:01:48.107Z,220.90
2019-06-11T01:02:48.139Z,198.20
2019-06-11T01:03:48.188Z,210.60
2019-06-11T01:04:48.220Z,215.70
2019-06-11T01:05:48.266Z,144.50
2019-06-11T01:06:48.315Z,193.70
2019-06-11T01:07:48.343Z,133.40
2019-06-11T01:08:48.378Z,91.00
2019-06-11T01:09:48.496Z,108.30
2019-06-11T01:10:48.470Z,106.80
2019-06-11T01:11:48.563Z,98.40
2019-06-11T01:12:48.544Z,109.60
2019-06-11T01:13:48.646Z,71.10
2019-06-11T01:14:48.646Z,72.60
2019-06-11T01:15:48.739Z,70.30
2019-06-11T01:16:48.764Z,81.50
2019-06-11T01:17:48.810Z,86.80
2019-06-11T01:18:48.852Z,111.90
2019-06-11T01:19:48.938Z,90.10
2019-06-11T01:20:48.887Z,104.30
2019-06-11T01:21:48.914Z,100.90
2019-06-11T01:22:48.984Z,134.90
2019-06-11T01:23:49.126Z,101.10
2019-06-11T01:24:49.125Z,82.20
2019-06-11T01:25:49.104Z,71.80
2019-06-11T01:26:49.196Z,71.60
2019-06-11T01:27:49.175Z,68.70
2019-06-11T01:28:49.266Z,71.30
2019-06-11T01:29:49.409Z,63.40
2019-06-11T01:30:49.298Z,68.10
2019-06-11T01:31:49.417Z,71.80
2019-06-11T01:33:01.202Z,69.90
2019-06-11T01:33:49.501Z,69.20
2019-06-11T01:34:49.635Z,66.40
2019-06-11T01:35:49.555Z,75.10
2019-06-11T01:36:49.612Z,70.10
2019-06-11T01:37:49.660Z,70.00
2019-06-11T01:38:49.639Z,81.10
2019-06-11T01:39:49.832Z,93.90
2019-06-11T01:40:49.775Z,96.20
2019-06-11T01:41:49.834Z,109.70
2019-06-11T01:42:52.207Z,133.40
2019-06-11T01:43:52.192Z,86.60
2019-06-11T01:44:51.908Z,120.80
2019-06-11T01:45:49.939Z,72.70
2019-06-11T01:46:52.657Z,65.00
2019-06-11T01:47:52.189Z,65.30
2019-06-11T01:48:50.048Z,63.90
2019-06-11T01:49:52.609Z,63.30
2019-06-11T01:50:52.844Z,62.70
2019-06-11T01:51:52.609Z,65.60
2019-06-11T01:52:52.296Z,65.20
2019-06-11T01:53:50.287Z,66.00
2019-06-11T01:54:52.321Z,68.90
2019-06-11T01:55:52.380Z,64.20
2019-06-11T01:56:52.407Z,66.00
2019-06-11T01:57:50.417Z,68.20
2019-06-11T01:58:52.613Z,82.10
2019-06-11T01:59:52.114Z,73.50
2019-06-11T02:00:53.294Z,78.30
2019-06-11T02:01:52.301Z,81.60
2019-06-11T02:02:53.060Z,77.40
2019-06-11T02:03:52.724Z,82.30
2019-06-11T02:04:52.843Z,84.80
2019-06-11T02:05:52.664Z,83.80
2019-06-11T02:06:53.070Z,95.40
2019-06-11T02:07:52.727Z,94.00
2019-06-11T02:08:52.252Z,97.00
2019-06-11T02:09:53.318Z,101.90
2019-06-11T02:10:52.943Z,96.90
2019-06-11T02:11:52.185Z,99.20
2019-06-11T02:12:52.729Z,97.90
2019-06-11T02:13:52.596Z,99.90
2019-06-11T02:14:52.741Z,93.50
2019-06-11T02:15:52.935Z,83.20
2019-06-11T02:16:53.255Z,95.60
2019-06-11T02:17:52.672Z,91.80
2019-06-11T02:18:53.024Z,94.10
2019-06-11T02:19:52.283Z,90.10
2019-06-11T02:20:53.423Z,89.30
2019-06-11T02:21:52.415Z,93.60
2019-06-11T02:22:53.305Z,85.70
2019-06-11T02:23:52.515Z,89.00
2019-06-11T02:24:54.568Z,85.20
2019-06-11T02:25:52.913Z,89.50
2019-06-11T02:26:52.813Z,84.60
2019-06-11T02:27:52.121Z,86.10
2019-06-11T02:28:52.928Z,90.50
2019-06-11T02:29:52.307Z,85.20
2019-06-11T02:31:00.515Z,89.00
2019-06-11T02:31:53.778Z,88.50
2019-06-11T02:32:54.753Z,78.60
2019-06-11T02:34:23.724Z,89.10
2019-06-11T02:35:05.631Z,83.10
2019-06-11T02:35:59.830Z,86.20
2019-06-11T02:36:52.596Z,86.30
2019-06-11T02:37:52.602Z,91.90
2019-06-11T02:38:52.149Z,92.70
2019-06-11T02:39:52.780Z,88.90
2019-06-11T02:40:52.278Z,89.10
2019-06-11T02:41:52.392Z,90.40
2019-06-11T02:42:52.353Z,83.60
2019-06-11T02:43:52.354Z,83.30
2019-06-11T02:44:52.861Z,77.80
2019-06-11T02:45:52.489Z,85.20
2019-06-11T02:46:52.484Z,77.40
2019-06-11T02:47:52.535Z,73.40
2019-06-11T02:48:55.433Z,78.00
2019-06-11T02:49:52.590Z,70.70
2019-06-11T02:50:52.978Z,69.30
2019-06-11T02:51:52.711Z,71.80
2019-06-11T02:52:52.737Z,73.30
2019-06-11T02:53:52.814Z,72.50
2019-06-11T02:54:52.809Z,78.20
2019-06-11T02:55:52.863Z,74.20
2019-06-11T02:56:52.896Z,75.30
2019-06-11T02:57:52.936Z,75.80
2019-06-11T02:58:52.980Z,71.80
2019-06-11T02:59:53.023Z,71.00
2019-06-11T03:00:53.602Z,68.00
2019-06-11T03:01:53.112Z,70.90
2019-06-11T03:02:53.134Z,66.40
2019-06-11T03:04:15.183Z,66.60
2019-06-11T03:05:03.027Z,70.40
2019-06-11T03:05:53.251Z,68.80
2019-06-11T03:06:53.290Z,70.30
2019-06-11T03:07:53.337Z,70.80
2019-06-11T03:08:53.399Z,72.00
2019-06-11T03:09:53.412Z,81.70
2019-06-11T03:10:56.510Z,75.80
2019-06-11T03:11:53.646Z,73.10
2019-06-11T03:12:53.573Z,71.70
2019-06-11T03:13:53.593Z,71.90
2019-06-11T03:14:53.627Z,75.30
2019-06-11T03:15:53.687Z,75.30
2019-06-11T03:16:53.732Z,78.40
2019-06-11T03:17:53.749Z,79.40
2019-06-11T03:18:53.844Z,77.90
2019-06-11T03:19:53.846Z,74.70
2019-06-11T03:20:53.934Z,68.50
2019-06-11T03:21:53.930Z,70.10
2019-06-11T03:22:53.965Z,70.60
2019-06-11T03:23:54.050Z,70.20
2019-06-11T03:24:54.041Z,69.90
2019-06-11T03:25:54.122Z,68.20
2019-06-11T03:26:54.139Z,66.50
2019-06-11T03:27:54.186Z,67.90
2019-06-11T03:53:04.978Z,53.90
2019-06-11T08:05:56.217Z,146.90
2019-06-11T08:06:56.352Z,221.50
2019-06-11T08:08:00.872Z,247.90
2019-06-11T08:08:55.309Z,234.00
2019-06-11T08:10:12.727Z,264.00
2019-06-11T08:11:00.785Z,268.40
2019-06-11T08:11:58.443Z,263.90
2019-06-11T08:13:01.660Z,253.50
2019-06-11T08:14:10.818Z,230.00
2019-06-11T08:14:56.304Z,222.90
2019-06-11T08:16:04.586Z,221.50
2019-06-11T08:16:56.580Z,234.20
2019-06-11T08:17:56.193Z,185.80
2019-06-11T08:19:02.350Z,174.10
2019-06-11T08:20:12.440Z,187.70
2019-06-11T08:21:14.586Z,193.50
2019-06-11T08:22:14.901Z,184.60
2019-06-11T08:23:03.011Z,198.10
2019-06-11T08:24:01.537Z,190.20
2019-06-11T08:25:02.915Z,204.40
2019-06-11T08:27:02.612Z,202.30
2019-06-11T08:28:07.007Z,189.90
2019-06-11T08:28:54.255Z,189.50
2019-06-11T08:29:54.301Z,184.90
2019-06-11T08:30:54.431Z,158.10
2019-06-11T08:31:54.378Z,179.80
2019-06-11T08:32:54.397Z,156.90
2019-06-11T08:34:01.092Z,165.90
2019-06-11T08:34:54.475Z,173.90
2019-06-11T08:35:54.528Z,185.60
2019-06-11T08:36:54.559Z,187.30
2019-06-11T08:37:54.602Z,197.10
2019-06-11T08:38:54.673Z,179.80
2019-06-11T08:40:12.027Z,183.70
2019-06-11T08:40:54.732Z,175.70
2019-06-11T08:41:54.754Z,186.20
2019-06-11T08:42:54.799Z,186.60
2019-06-11T08:43:54.839Z,188.60
2019-06-11T08:45:08.141Z,191.80
2019-06-11T08:45:54.912Z,201.30
2019-06-11T08:46:54.973Z,205.80
2019-06-11T08:47:55.012Z,202.40
2019-06-11T08:48:55.048Z,176.40
2019-06-11T08:49:55.087Z,157.60
2019-06-11T08:50:55.146Z,152.00
2019-06-11T08:51:55.166Z,154.00
2019-06-11T08:52:55.205Z,161.00
2019-06-11T08:53:55.239Z,166.80
2019-06-11T08:54:55.280Z,177.60
2019-06-11T08:55:55.370Z,162.00
2019-06-11T08:56:55.383Z,158.70
2019-06-11T08:57:55.400Z,170.90
2019-06-11T08:58:55.448Z,174.40
2019-06-11T09:00:26.830Z,182.30
2019-06-11T09:01:07.876Z,175.80
2019-06-11T09:01:55.574Z,168.80
2019-06-11T09:02:55.644Z,175.70
2019-06-11T09:03:55.631Z,190.50
2019-06-11T09:04:55.678Z,200.90
2019-06-11T09:05:55.713Z,188.80
2019-06-11T09:06:55.753Z,200.40
2019-06-11T09:07:55.805Z,189.10
2019-06-11T09:08:55.836Z,166.70
2019-06-11T09:09:55.873Z,147.80
2019-06-11T09:10:55.914Z,152.40
2019-06-11T09:11:55.964Z,160.40
2019-06-11T09:12:56.000Z,162.60
2019-06-11T09:13:56.035Z,159.80
2019-06-11T09:14:56.083Z,150.00
2019-06-11T09:15:56.119Z,153.90
2019-06-11T09:16:58.134Z,188.20
2019-06-11T09:17:56.215Z,191.40
2019-06-11T09:18:57.662Z,176.70
2019-06-11T09:19:56.279Z,178.50
2019-06-11T09:20:56.344Z,166.00
2019-06-11T09:21:56.353Z,157.10
2019-06-11T09:22:56.397Z,150.70
2019-06-11T09:23:57.337Z,153.90
2019-06-11T09:24:56.469Z,161.70
2019-06-11T09:25:56.541Z,165.60
2019-06-11T09:26:56.572Z,136.00
2019-06-11T09:27:56.629Z,143.60
2019-06-11T09:28:56.658Z,142.30
2019-06-11T09:29:57.146Z,133.60
2019-06-11T09:30:56.712Z,137.60
2019-06-11T09:32:01.190Z,133.70
2019-06-11T09:32:56.816Z,127.60
2019-06-11T09:33:56.847Z,132.50
2019-06-11T09:34:56.897Z,165.20
2019-06-11T09:35:56.922Z,146.50
2019-06-11T09:36:57.005Z,146.70
2019-06-11T09:37:57.006Z,143.70
2019-06-11T09:38:57.057Z,155.00
2019-06-11T09:39:57.103Z,178.80
2019-06-11T09:41:02.929Z,152.60
2019-06-11T09:41:57.155Z,137.80
2019-06-11T09:42:57.224Z,137.80
2019-06-11T09:43:57.249Z,129.40
2019-06-11T09:44:57.290Z,126.80
2019-06-11T09:46:01.743Z,126.90
2019-06-11T09:46:57.385Z,131.90
2019-06-11T09:48:04.059Z,123.90
2019-06-11T09:48:57.505Z,128.00
2019-06-11T09:50:00.154Z,130.70
2019-06-11T09:50:57.602Z,119.20
2019-06-11T09:51:57.557Z,113.10
2019-06-11T09:52:57.609Z,112.30
2019-06-11T09:53:57.648Z,117.20
2019-06-11T09:54:57.708Z,116.10
2019-06-11T09:56:00.167Z,131.00
2019-06-11T09:57:00.279Z,111.10
2019-06-11T09:58:01.717Z,118.70
2019-06-11T09:59:00.086Z,109.70
2019-06-11T09:59:57.907Z,105.70
2019-06-11T10:01:00.188Z,110.60
2019-06-11T10:01:57.969Z,114.90
2019-06-11T10:03:00.242Z,102.70
2019-06-11T10:03:58.059Z,107.80
2019-06-11T10:04:58.970Z,98.40
2019-06-11T10:06:00.268Z,99.30
2019-06-11T10:06:58.182Z,110.00
2019-06-11T10:08:00.419Z,109.60
2019-06-11T10:08:58.294Z,101.40
2019-06-11T10:09:59.957Z,99.20
2019-06-11T10:11:35.728Z,102.70
2019-06-11T10:12:03.649Z,99.60
2019-06-11T10:13:00.673Z,97.10
2019-06-11T10:14:00.978Z,148.10
2019-06-11T10:15:01.021Z,103.20
2019-06-11T10:16:00.450Z,96.90
2019-06-11T10:17:00.507Z,98.70
2019-06-11T10:17:58.622Z,95.70
2019-06-11T10:19:01.215Z,114.90
2019-06-11T10:19:58.705Z,110.30
2019-06-11T10:21:00.347Z,110.50
2019-06-11T10:21:58.781Z,98.60
2019-06-11T10:23:01.094Z,100.00
2019-06-11T10:24:00.862Z,100.40
2019-06-11T10:25:00.945Z,104.80
2019-06-11T10:26:01.052Z,107.40
2019-06-11T10:27:01.043Z,107.30
2019-06-11T10:28:14.470Z,103.50
2019-06-11T10:28:59.883Z,133.00
2019-06-11T10:30:00.357Z,103.30
2019-06-11T10:31:01.201Z,99.80
2019-06-11T10:32:00.263Z,95.30
2019-06-11T10:32:59.221Z,101.80
2019-06-11T10:34:01.447Z,99.70
2019-06-11T10:35:00.628Z,100.80
2019-06-11T10:36:00.573Z,101.20
2019-06-11T10:37:01.314Z,98.80
2019-06-11T10:38:00.465Z,99.40
2019-06-11T10:39:01.405Z,98.40
2019-06-11T10:39:59.942Z,81.10
2019-06-11T10:41:05.007Z,96.70
2019-06-11T10:42:04.291Z,89.00
2019-06-11T10:43:00.823Z,94.60
2019-06-11T10:44:00.379Z,81.40
2019-06-11T10:44:59.720Z,85.00
2019-06-11T10:46:01.695Z,85.10
2019-06-11T10:47:00.963Z,95.20
2019-06-11T10:48:00.795Z,82.30
2019-06-11T10:49:01.421Z,93.70
2019-06-11T10:50:00.782Z,93.70
2019-06-11T10:51:01.465Z,95.40
2019-06-11T10:52:00.021Z,93.60
2019-06-11T10:53:03.537Z,107.90
2019-06-11T10:54:00.126Z,95.50
2019-06-11T10:55:00.419Z,257.30
2019-06-11T10:56:02.008Z,103.70
2019-06-11T10:57:00.233Z,85.30
2019-06-11T10:58:01.415Z,83.00
2019-06-11T10:59:00.461Z,89.10
2019-06-11T11:00:03.220Z,76.80
2019-06-11T11:01:00.886Z,83.70
2019-06-11T11:02:02.397Z,86.30
2019-06-11T11:03:00.828Z,80.20
2019-06-11T11:04:02.950Z,91.30
2019-06-11T11:05:04.490Z,72.60
2019-06-11T11:06:01.540Z,71.30
2019-06-11T11:07:00.950Z,74.10
2019-06-11T11:08:00.671Z,76.20
2019-06-11T11:09:01.958Z,70.30
2019-06-11T11:10:01.192Z,68.80
2019-06-11T11:11:02.971Z,94.80
2019-06-11T11:12:16.981Z,78.60
2019-06-11T11:13:01.437Z,75.70
2019-06-11T11:14:01.569Z,76.70
2019-06-11T11:15:01.533Z,204.30
2019-06-11T11:16:01.681Z,105.10
2019-06-11T11:17:01.433Z,113.40
2019-06-11T11:18:09.101Z,78.10
2019-06-11T11:19:01.155Z,80.70
2019-06-11T11:20:03.522Z,74.10
2019-06-11T11:21:01.432Z,97.50
2019-06-11T11:22:01.282Z,70.90
2019-06-11T11:23:05.026Z,71.60
2019-06-11T11:24:01.512Z,76.10
2019-06-11T11:25:01.390Z,78.50
2019-06-11T11:26:08.040Z,75.30
2019-06-11T11:27:01.509Z,99.70
2019-06-11T11:28:16.593Z,107.80
2019-06-11T11:29:01.584Z,122.80
2019-06-11T11:30:01.662Z,104.40
2019-06-11T11:31:06.065Z,110.90
2019-06-11T11:32:01.734Z,92.20
2019-06-11T11:33:07.536Z,67.50
2019-06-11T11:34:01.810Z,61.90
2019-06-11T11:35:02.044Z,56.20
2019-06-11T11:36:02.302Z,57.20
2019-06-11T11:37:03.144Z,57.90
2019-06-11T11:38:04.948Z,58.60
2019-06-11T11:39:02.081Z,75.70
2019-06-11T11:40:02.099Z,53.00
2019-06-11T11:41:04.321Z,49.30
2019-06-11T11:42:04.786Z,49.20
2019-06-11T11:43:04.764Z,52.50
2019-06-11T11:44:04.045Z,48.30
2019-06-11T11:45:02.765Z,53.20
2019-06-11T11:46:05.896Z,52.20
2019-06-11T11:47:02.413Z,60.60
2019-06-11T11:48:03.410Z,310.30
2019-06-11T11:49:02.522Z,253.70
2019-06-11T11:50:02.567Z,394.80
2019-06-11T11:51:02.653Z,358.60
2019-06-11T11:52:02.665Z,286.30
2019-06-11T11:53:02.728Z,282.00
2019-06-11T11:54:02.798Z,241.10
2019-06-11T11:55:02.828Z,264.00
2019-06-11T11:56:02.880Z,309.00
2019-06-11T11:57:02.900Z,285.00
2019-06-11T11:58:02.976Z,241.00
2019-06-11T11:59:03.153Z,277.30
2019-06-11T12:00:09.227Z,228.90
2019-06-11T12:01:03.135Z,276.20
2019-06-11T12:02:06.224Z,262.30
2019-06-11T12:03:04.945Z,215.00
2019-06-11T12:04:06.732Z,289.40
2019-06-11T12:05:06.466Z,561.20
2019-06-11T12:06:03.549Z,584.60
2019-06-11T12:07:03.403Z,603.10
2019-06-11T12:08:03.464Z,438.30
2019-06-11T12:09:03.499Z,471.70
2019-06-11T12:10:03.540Z,429.00
2019-06-11T12:11:03.639Z,469.10
2019-06-11T12:12:03.630Z,553.80
2019-06-11T12:13:06.787Z,493.40
2019-06-11T12:14:03.746Z,541.50
2019-06-11T12:15:07.613Z,541.10
2019-06-11T12:16:07.873Z,403.50
2019-06-11T12:17:03.923Z,578.70
2019-06-11T12:18:03.959Z,472.00
2019-06-11T12:19:16.981Z,579.50
2019-06-11T12:20:04.055Z,572.80
2019-06-11T12:21:06.169Z,600.50
2019-06-11T12:22:04.143Z,558.30
2019-06-11T12:23:08.429Z,506.50
2019-06-11T12:24:04.247Z,473.30
2019-06-11T12:25:21.542Z,668.10
2019-06-11T12:26:04.354Z,552.40
2019-06-11T12:27:04.398Z,658.30
2019-06-11T12:28:04.888Z,731.60
2019-06-11T12:29:04.474Z,589.80
2019-06-11T12:30:11.051Z,542.00
2019-06-11T12:31:04.713Z,503.10
2019-06-11T12:32:08.153Z,578.90
2019-06-11T12:33:04.679Z,560.40
2019-06-11T12:34:04.768Z,493.40
2019-06-11T12:35:04.788Z,584.70
2019-06-11T12:36:05.183Z,567.20
2019-06-11T12:37:04.872Z,636.70
2019-06-11T12:38:04.953Z,422.30
2019-06-11T12:39:05.083Z,581.50
2019-06-11T12:40:05.042Z,651.40
2019-06-11T12:41:08.431Z,541.10
2019-06-11T12:42:06.270Z,418.20
2019-06-11T12:43:28.700Z,424.10
2019-06-11T12:44:05.257Z,387.60
2019-06-11T12:45:05.313Z,446.80
2019-06-11T12:46:06.048Z,399.00
2019-06-11T12:47:05.544Z,318.60
2019-06-11T12:48:05.430Z,366.50
2019-06-11T12:49:06.745Z,326.50
2019-06-11T12:50:05.545Z,149.50
2019-06-11T12:51:11.393Z,203.30
2019-06-11T12:52:06.374Z,283.60
2019-06-11T12:53:07.375Z,252.40
2019-06-11T12:54:05.757Z,296.90
2019-06-11T12:55:07.783Z,257.20
2019-06-11T12:56:05.863Z,167.00
2019-06-11T12:57:06.185Z,225.80
2019-06-11T12:58:07.626Z,143.20
2019-06-11T12:59:07.210Z,294.00
2019-06-11T13:00:08.924Z,236.00
2019-06-11T13:01:07.093Z,205.30
2019-06-11T13:02:06.167Z,149.20
2019-06-11T13:03:06.216Z,147.30
2019-06-11T13:04:08.405Z,120.70
2019-06-11T13:05:06.300Z,141.70
2019-06-11T13:06:07.231Z,89.80
2019-06-11T13:07:06.441Z,282.70
2019-06-11T13:08:09.592Z,346.90
2019-06-11T13:09:06.532Z,324.30
2019-06-11T13:10:06.593Z,327.50
2019-06-11T13:11:07.657Z,338.20
2019-06-11T13:12:06.976Z,296.30
2019-06-11T13:13:06.732Z,301.00
2019-06-11T13:14:06.821Z,307.80
2019-06-11T13:15:09.551Z,542.40
2019-06-11T13:16:06.903Z,487.30
2019-06-11T13:17:09.667Z,354.60
2019-06-11T13:18:07.010Z,239.30
2019-06-11T13:19:07.141Z,280.40
2019-06-11T13:20:07.106Z,254.50
2019-06-11T13:21:07.366Z,258.00
2019-06-11T13:22:07.216Z,315.10
2019-06-11T13:23:07.278Z,312.10
2019-06-11T13:24:08.107Z,294.50
2019-06-11T13:25:07.372Z,190.00
2019-06-11T13:26:07.399Z,234.80
2019-06-11T13:27:07.471Z,198.80
2019-06-11T13:28:07.542Z,159.60
2019-06-11T13:29:08.019Z,230.70
2019-06-11T13:30:10.205Z,224.60
2019-06-11T13:31:08.716Z,388.00
2019-06-11T13:32:08.137Z,183.50
2019-06-11T13:33:07.843Z,200.80
2019-06-11T13:34:07.843Z,158.20
2019-06-11T13:35:10.531Z,166.10
2019-06-11T13:36:10.796Z,162.30
2019-06-11T13:37:07.994Z,175.00
2019-06-11T13:38:16.589Z,123.80
2019-06-11T13:39:10.862Z,187.60
2019-06-11T13:40:09.814Z,144.30
2019-06-11T13:41:12.103Z,137.80
2019-06-11T13:42:14.256Z,118.80
2019-06-11T13:43:10.580Z,127.60
2019-06-11T13:44:29.432Z,129.30
2019-06-11T13:45:11.014Z,108.10
2019-06-11T13:46:10.293Z,105.00
2019-06-11T13:47:10.953Z,82.70
2019-06-11T13:48:10.842Z,85.80
2019-06-11T13:49:11.189Z,95.10
2019-06-11T13:50:11.291Z,111.30
2019-06-11T13:51:11.545Z,100.00
2019-06-11T13:52:11.071Z,149.40
2019-06-11T13:53:10.701Z,183.50
2019-06-11T13:54:08.939Z,191.30
2019-06-11T13:55:11.494Z,172.10
2019-06-11T13:56:11.278Z,184.00
2019-06-11T13:57:11.798Z,198.70
2019-06-11T13:58:10.947Z,218.50
2019-06-11T13:59:13.224Z,146.00
2019-06-11T14:00:14.762Z,141.60
2019-06-11T14:01:11.251Z,157.10
2019-06-11T14:02:11.868Z,146.70
2019-06-11T14:03:13.940Z,158.00
2019-06-11T14:04:10.450Z,172.40
2019-06-11T14:05:10.578Z,196.00
2019-06-11T14:06:09.613Z,149.20
2019-06-11T14:07:09.659Z,158.60
2019-06-11T14:08:10.659Z,131.20
2019-06-11T14:09:15.446Z,130.50
2019-06-11T14:10:11.084Z,132.40
2019-06-11T14:11:11.734Z,138.10
2019-06-11T14:12:10.342Z,97.20
2019-06-11T14:13:10.616Z,90.20
2019-06-11T14:14:25.038Z,103.30
2019-06-11T14:15:13.430Z,109.50
2019-06-11T14:16:10.735Z,93.20
2019-06-11T14:17:11.138Z,114.30
2019-06-11T14:18:10.559Z,197.10
2019-06-11T14:19:10.300Z,101.00
2019-06-11T14:20:11.087Z,73.40
2019-06-11T14:21:12.902Z,113.50
2019-06-11T14:22:10.915Z,132.10
2019-06-11T14:23:10.619Z,122.90
2019-06-11T14:24:12.218Z,78.60
2019-06-11T14:25:10.606Z,76.10
2019-06-11T14:26:10.714Z,89.60
2019-06-11T14:27:10.695Z,72.90
2019-06-11T14:28:10.766Z,42.50
2019-06-11T14:29:20.314Z,74.40
2019-06-11T14:30:18.310Z,92.00
2019-06-11T14:31:29.994Z,84.60
2019-06-11T14:32:11.040Z,91.30
2019-06-11T14:33:12.077Z,80.70
2019-06-11T14:34:11.647Z,103.10
2019-06-11T14:35:11.743Z,88.80
2019-06-11T14:36:13.960Z,104.20
2019-06-11T14:37:11.248Z,96.50
2019-06-11T14:38:12.005Z,77.80
2019-06-11T14:39:11.533Z,131.70
2019-06-11T14:40:12.028Z,98.20
2019-06-11T14:41:12.104Z,111.10
2019-06-11T14:42:11.558Z,80.80
2019-06-11T14:43:12.400Z,66.50
2019-06-11T14:44:21.925Z,57.90
2019-06-11T14:45:11.747Z,85.10
2019-06-11T14:46:11.769Z,98.40
2019-06-11T14:47:12.951Z,76.70
2019-06-11T14:48:11.876Z,103.70
2019-06-11T14:49:12.307Z,64.50
2019-06-11T14:50:16.721Z,63.40
2019-06-11T14:51:12.509Z,100.70
2019-06-11T14:52:12.104Z,71.40
2019-06-11T14:53:12.168Z,118.60
2019-06-11T14:54:16.705Z,119.40
2019-06-11T14:55:16.071Z,112.70
2019-06-11T14:56:14.036Z,109.40
2019-06-11T14:57:13.878Z,160.90
2019-06-11T14:58:12.417Z,177.10
2019-06-11T14:59:12.820Z,119.30
2019-06-11T15:00:12.590Z,118.20
2019-06-11T15:01:13.580Z,241.40
2019-06-11T15:02:12.643Z,179.40
2019-06-11T15:03:13.910Z,122.40
2019-06-11T15:04:13.833Z,157.10
2019-06-11T15:05:13.100Z,114.90
2019-06-11T15:06:12.866Z,136.00
2019-06-11T15:07:14.923Z,144.80
2019-06-11T15:08:14.498Z,135.40
2019-06-11T15:09:14.140Z,103.40
2019-06-11T15:10:13.149Z,150.90
2019-06-11T15:11:14.396Z,146.20
2019-06-11T15:12:16.827Z,125.30
2019-06-11T15:13:13.256Z,146.90
2019-06-11T15:14:14.072Z,196.00
2019-06-11T15:15:19.330Z,160.10
2019-06-11T15:16:13.421Z,147.50
2019-06-11T15:17:13.464Z,152.50
2019-06-11T15:18:16.138Z,161.00
2019-06-11T15:19:14.616Z,128.20
2019-06-11T15:20:21.477Z,225.20
2019-06-11T15:21:13.915Z,155.80
2019-06-11T15:22:13.732Z,121.90
2019-06-11T15:23:13.826Z,122.90
2019-06-11T15:24:15.838Z,115.90
2019-06-11T15:25:13.922Z,151.80
2019-06-11T15:26:14.625Z,169.20
2019-06-11T15:27:14.028Z,194.40
2019-06-11T15:28:14.937Z,179.70
2019-06-11T15:29:14.431Z,168.80
2019-06-11T15:30:23.119Z,185.70
2019-06-11T15:31:14.551Z,207.60
2019-06-11T15:32:14.843Z,147.70
2019-06-11T15:33:15.904Z,176.20
2019-06-11T15:34:15.771Z,151.70
2019-06-11T15:35:16.250Z,164.80
2019-06-11T15:36:16.248Z,163.30
2019-06-11T15:37:14.574Z,159.70
2019-06-11T15:38:17.892Z,162.90
2019-06-11T15:39:15.084Z,193.00
2019-06-11T15:40:16.114Z,281.60
2019-06-11T15:41:15.613Z,216.80
2019-06-11T15:42:14.859Z,215.70
2019-06-11T15:43:17.704Z,221.90
2019-06-11T15:44:16.939Z,140.90
2019-06-11T15:45:34.204Z,292.00
2019-06-11T15:46:16.754Z,250.20
2019-06-11T15:47:15.748Z,328.00
2019-06-11T15:48:15.651Z,469.50
2019-06-11T15:49:19.967Z,540.70
2019-06-11T15:50:15.331Z,542.50
2019-06-11T15:51:15.333Z,579.60
2019-06-11T15:52:15.410Z,565.70
2019-06-11T15:53:15.428Z,734.70
2019-06-11T15:54:17.568Z,618.00
2019-06-11T15:55:15.543Z,635.30
2019-06-11T15:56:32.796Z,699.10
2019-06-11T15:57:15.638Z,635.20
2019-06-11T15:58:15.695Z,615.80
2019-06-11T15:59:16.117Z,552.70
2019-06-11T16:00:15.813Z,454.90
2019-06-11T16:01:15.868Z,498.50
2019-06-11T16:02:18.446Z,540.60
2019-06-11T16:03:15.957Z,488.80
2019-06-11T16:04:17.935Z,461.50
2019-06-11T16:05:16.096Z,430.20
2019-06-11T16:06:25.814Z,475.30
2019-06-11T16:07:16.143Z,415.50
2019-06-11T16:08:16.201Z,465.50
2019-06-11T16:09:27.243Z,482.80
2019-06-11T16:10:16.500Z,455.40
2019-06-11T16:11:16.357Z,399.50
2019-06-11T16:12:17.136Z,460.70
2019-06-11T16:13:17.231Z,548.90
2019-06-11T16:14:16.501Z,506.30
2019-06-11T16:15:35.635Z,454.70
2019-06-11T16:16:21.814Z,525.80
2019-06-11T16:17:16.689Z,418.90
2019-06-11T16:18:18.026Z,466.50
2019-06-11T16:19:16.763Z,474.80
2019-06-11T16:20:18.853Z,551.60
2019-06-11T16:21:17.090Z,378.70
2019-06-11T16:22:17.439Z,470.10
2019-06-11T16:23:17.070Z,711.30
2019-06-11T16:24:17.040Z,698.80
2019-06-11T16:25:17.835Z,453.40
2019-06-11T16:26:17.314Z,423.70
2019-06-11T16:27:17.167Z,367.60
2019-06-11T16:28:18.152Z,447.80
2019-06-11T16:29:17.904Z,615.00
2019-06-11T16:30:18.653Z,446.80
2019-06-11T16:31:17.929Z,501.70
2019-06-11T16:32:20.683Z,496.80
2019-06-11T16:33:18.176Z,447.30
2019-06-11T16:34:20.707Z,617.20
2019-06-11T16:35:18.982Z,505.60
2019-06-11T16:36:22.675Z,570.70
2019-06-11T16:37:18.022Z,480.00
2019-06-11T16:38:20.158Z,498.40
2019-06-11T16:39:17.779Z,598.50
2019-06-11T16:40:19.107Z,592.00
2019-06-11T16:41:19.394Z,704.80
2019-06-11T16:42:18.948Z,667.80
2019-06-11T16:43:19.449Z,582.50
2019-06-11T16:44:22.726Z,576.00
2019-06-11T16:45:18.031Z,553.10
2019-06-11T16:46:25.302Z,604.80
2019-06-11T16:47:23.222Z,631.90
2019-06-11T16:48:18.324Z,535.40
2019-06-11T16:49:19.917Z,521.00
2019-06-11T16:50:22.288Z,547.70
2019-06-11T16:51:19.015Z,579.50
2019-06-11T16:52:19.162Z,657.60
2019-06-11T16:53:21.070Z,563.70
2019-06-11T16:54:20.325Z,622.30
2019-06-11T16:55:21.018Z,624.90
2019-06-11T16:56:21.503Z,567.00
2019-06-11T16:57:20.850Z,618.20
2019-06-11T16:58:21.664Z,779.20
2019-06-11T16:59:20.502Z,666.90
2019-06-11T17:00:28.139Z,715.90
2019-06-11T17:01:20.340Z,642.30
2019-06-11T17:02:19.751Z,724.30
2019-06-11T17:03:24.198Z,675.60
2019-06-11T17:04:21.131Z,678.10
2019-06-11T17:05:25.263Z,689.10
2019-06-11T17:06:21.567Z,777.50
2019-06-11T17:07:19.111Z,637.20
2019-06-11T17:08:25.407Z,724.60
2019-06-11T17:09:19.221Z,660.10
2019-06-11T17:10:22.774Z,670.20
2019-06-11T17:11:23.378Z,693.50
2019-06-11T17:12:24.772Z,649.90
2019-06-11T17:13:20.624Z,642.40
2019-06-11T17:14:23.708Z,816.40
2019-06-11T17:15:23.303Z,683.50